createdAt,value
2023-12-08T00:01:52.063Z,9.20
2023-12-08T00:04:27.244Z,10.05
2023-12-08T00:07:00.185Z,4.68
2023-12-08T00:09:34.907Z,8.75
2023-12-08T00:12:08.397Z,5.82
2023-12-08T00:14:41.151Z,5.22
2023-12-08T00:17:13.772Z,6.45
2023-12-08T00:19:47.287Z,4.38
2023-12-08T00:22:20.023Z,5.40
2023-12-08T00:24:54.114Z,9.13
2023-12-08T00:27:27.007Z,5.07
2023-12-08T00:30:00.900Z,5.22
2023-12-08T00:32:34.196Z,4.75
2023-12-08T00:35:07.641Z,9.32
2023-12-08T00:37:40.293Z,5.32
2023-12-08T00:40:15.165Z,5.10
2023-12-08T00:42:48.270Z,6.28
2023-12-08T00:45:22.350Z,5.50
2023-12-08T00:47:55.499Z,5.78
2023-12-08T00:50:28.307Z,9.60
2023-12-08T00:53:01.016Z,6.30
2023-12-08T00:55:35.065Z,5.40
2023-12-08T00:58:08.340Z,6.05
2023-12-08T01:00:41.152Z,5.93
2023-12-08T01:03:14.447Z,5.63
2023-12-08T01:05:47.067Z,9.45
2023-12-08T01:08:19.684Z,5.80
2023-12-08T01:10:53.682Z,5.78
2023-12-08T01:13:26.654Z,5.88
2023-12-08T01:15:59.317Z,8.90
2023-12-08T01:18:32.008Z,5.40
2023-12-08T01:21:04.982Z,5.57
2023-12-08T01:23:38.428Z,5.05
2023-12-08T01:26:12.727Z,5.38
2023-12-08T01:28:45.665Z,6.32
2023-12-08T01:31:18.902Z,5.10
2023-12-08T01:33:52.085Z,5.38
2023-12-08T01:36:41.535Z,4.60
2023-12-08T01:39:17.095Z,4.82
2023-12-08T01:41:53.347Z,6.25
2023-12-08T01:44:26.120Z,5.57
2023-12-08T01:46:59.259Z,5.50
2023-12-08T01:49:32.121Z,6.03
2023-12-08T01:52:05.994Z,9.30
2023-12-08T01:54:39.612Z,5.07
2023-12-08T01:57:13.899Z,5.45
2023-12-08T01:59:46.733Z,5.68
2023-12-08T02:02:19.576Z,8.73
2023-12-08T02:04:54.538Z,8.85
2023-12-08T02:10:00.034Z,5.18
2023-12-08T02:12:34.157Z,9.50
2023-12-08T02:15:08.124Z,4.63
2023-12-08T02:17:41.687Z,4.88
2023-12-08T02:20:14.977Z,5.38
2023-12-08T02:22:48.211Z,5.80
2023-12-08T02:25:22.335Z,10.48
2023-12-08T02:27:55.029Z,6.10
2023-12-08T02:30:27.858Z,5.35
2023-12-08T02:33:04.623Z,5.78
2023-12-08T02:35:39.896Z,5.72
2023-12-08T02:38:15.676Z,6.13
2023-12-08T02:40:49.731Z,4.07
2023-12-08T02:43:22.376Z,5.87
2023-12-08T02:45:55.358Z,9.65
2023-12-08T02:48:55.819Z,5.78
2023-12-08T02:51:29.126Z,5.05
2023-12-08T02:54:01.982Z,5.28
2023-12-08T02:56:36.141Z,5.15
2023-12-08T02:59:08.839Z,5.47
2023-12-08T03:01:42.991Z,5.10
2023-12-08T03:04:16.653Z,4.82
2023-12-08T03:06:49.596Z,4.72
2023-12-08T03:09:22.266Z,5.95
2023-12-08T03:11:56.396Z,6.03
2023-12-08T03:14:29.491Z,9.38
2023-12-08T03:17:02.698Z,5.50
2023-12-08T03:19:35.359Z,5.40
2023-12-08T03:22:08.034Z,5.88
2023-12-08T03:24:40.654Z,10.32
2023-12-08T03:27:15.250Z,5.82
2023-12-08T03:29:47.947Z,5.33
2023-12-08T03:32:20.705Z,10.80
2023-12-08T03:34:53.613Z,6.72
2023-12-08T03:37:26.514Z,5.85
2023-12-08T03:39:59.285Z,5.43
2023-12-08T03:42:37.709Z,6.05
2023-12-08T03:45:10.457Z,5.97
2023-12-08T03:47:43.296Z,6.32
2023-12-08T03:50:16.326Z,6.28
2023-12-08T03:52:54.312Z,11.35
2023-12-08T03:55:28.224Z,6.22
2023-12-08T03:58:02.488Z,6.30
2023-12-08T04:00:35.700Z,5.95
2023-12-08T04:03:08.795Z,6.82
2023-12-08T04:05:41.894Z,11.43
2023-12-08T04:08:14.618Z,11.00
2023-12-08T04:10:47.541Z,5.18
2023-12-08T04:13:21.761Z,10.13
2023-12-08T04:15:54.685Z,5.32
2023-12-08T04:18:27.515Z,5.07
2023-12-08T04:21:00.418Z,5.47
2023-12-08T04:23:33.257Z,6.53
2023-12-08T04:26:08.148Z,11.70
2023-12-08T04:31:14.998Z,4.95
2023-12-08T04:33:49.002Z,5.87
2023-12-08T04:36:21.919Z,5.88
2023-12-08T04:38:54.615Z,6.35
2023-12-08T04:41:27.378Z,7.00
2023-12-08T04:44:00.063Z,2.92
2023-12-08T04:46:34.508Z,5.55
2023-12-08T04:49:07.622Z,7.10
2023-12-08T04:51:43.128Z,10.15
2023-12-08T04:54:16.142Z,5.45
2023-12-08T04:56:49.012Z,5.40
2023-12-08T04:59:22.098Z,10.50
2023-12-08T05:01:56.231Z,5.75
2023-12-08T05:04:29.916Z,7.03
2023-12-08T05:07:02.875Z,5.15
2023-12-08T05:09:35.521Z,6.75
2023-12-08T05:12:08.614Z,11.77
2023-12-08T05:14:42.210Z,7.00
2023-12-08T05:17:16.678Z,5.85
2023-12-08T05:19:49.866Z,5.93
2023-12-08T05:22:22.650Z,12.60
2023-12-08T05:24:55.474Z,7.28
2023-12-08T05:27:29.034Z,6.25
2023-12-08T05:30:01.824Z,6.55
2023-12-08T05:32:36.578Z,7.07
2023-12-08T05:35:10.184Z,6.97
2023-12-08T05:37:42.970Z,5.85
2023-12-08T05:40:16.363Z,6.38
2023-12-08T05:42:49.573Z,8.57
2023-12-08T05:45:22.420Z,7.95
2023-12-08T05:47:57.076Z,7.05
2023-12-08T05:50:29.861Z,7.03
2023-12-08T05:53:04.693Z,7.18
2023-12-08T05:55:39.297Z,7.50
2023-12-08T05:58:12.009Z,7.18
2023-12-08T06:00:44.756Z,6.78
2023-12-08T06:03:19.724Z,14.90
2023-12-08T06:05:54.930Z,6.32
2023-12-08T06:08:28.003Z,14.55
2023-12-08T06:11:01.703Z,9.65
2023-12-08T06:13:34.978Z,7.45
2023-12-08T06:16:08.242Z,7.60
2023-12-08T06:18:42.482Z,8.00
2023-12-08T06:21:16.206Z,14.07
2023-12-08T06:23:48.994Z,7.80
2023-12-08T06:26:21.893Z,7.20
2023-12-08T06:28:54.693Z,14.70
2023-12-08T06:31:27.382Z,14.32
2023-12-08T06:34:09.971Z,8.05
2023-12-08T06:36:50.106Z,6.93
2023-12-08T06:39:23.401Z,14.65
2023-12-08T06:41:56.641Z,7.47
2023-12-08T06:44:30.692Z,7.38
2023-12-08T06:47:03.503Z,7.60
2023-12-08T06:49:37.709Z,16.38
2023-12-08T06:52:10.617Z,7.85
2023-12-08T06:54:43.432Z,8.77
2023-12-08T06:57:16.534Z,9.15
2023-12-08T06:59:49.582Z,8.18
2023-12-08T07:02:22.481Z,22.85
2023-12-08T07:04:56.731Z,16.13
2023-12-08T07:07:29.910Z,9.05
2023-12-08T07:10:02.725Z,7.47
2023-12-08T07:12:35.756Z,18.50
2023-12-08T07:15:09.619Z,8.23
2023-12-08T07:17:42.885Z,9.55
2023-12-08T07:20:19.334Z,9.23
2023-12-08T07:22:52.529Z,10.00
2023-12-08T07:25:25.718Z,9.32
2023-12-08T07:27:58.511Z,9.27
2023-12-08T07:30:31.602Z,7.65
2023-12-08T07:33:05.536Z,9.05
2023-12-08T07:35:39.729Z,9.63
2023-12-08T07:38:12.392Z,8.57
2023-12-08T07:40:46.555Z,9.18
2023-12-08T07:43:19.292Z,9.23
2023-12-08T07:45:54.955Z,8.80
2023-12-08T07:48:29.018Z,8.13
2023-12-08T07:51:03.202Z,9.35
2023-12-08T07:53:36.005Z,9.40
2023-12-08T07:56:09.137Z,9.55
2023-12-08T07:58:41.845Z,19.02
2023-12-08T08:01:14.588Z,22.25
2023-12-08T08:03:47.424Z,9.02
2023-12-08T08:06:21.805Z,9.32
2023-12-08T08:08:54.978Z,10.77
2023-12-08T08:11:28.249Z,9.32
2023-12-08T08:14:00.961Z,9.50
2023-12-08T08:16:33.651Z,10.30
2023-12-08T08:19:07.393Z,10.75
2023-12-08T08:21:42.649Z,9.00
2023-12-08T08:24:15.430Z,9.65
2023-12-08T08:26:48.789Z,8.13
2023-12-08T08:29:22.252Z,9.10
2023-12-08T08:31:55.124Z,10.52
2023-12-08T08:34:27.903Z,10.15
2023-12-08T08:37:02.113Z,10.73
2023-12-08T08:39:34.810Z,11.65
2023-12-08T08:42:08.078Z,23.88
2023-12-08T08:44:40.828Z,10.90
2023-12-08T08:47:14.407Z,9.75
2023-12-08T08:49:47.425Z,9.45
2023-12-08T08:52:22.573Z,19.23
2023-12-08T08:57:27.875Z,10.45
2023-12-08T09:00:01.573Z,9.32
2023-12-08T09:02:35.388Z,10.10
2023-12-08T09:05:08.915Z,10.38
2023-12-08T09:07:43.525Z,9.80
2023-12-08T09:12:53.080Z,11.05
2023-12-08T09:17:59.535Z,9.13
2023-12-08T09:20:32.277Z,9.65
2023-12-08T09:23:07.306Z,11.82
2023-12-08T09:25:41.309Z,9.75
2023-12-08T09:28:14.061Z,23.13
2023-12-08T09:30:48.076Z,23.58
2023-12-08T09:33:24.043Z,10.50
2023-12-08T09:35:59.465Z,11.35
2023-12-08T09:38:34.956Z,12.15
2023-12-08T09:41:07.868Z,26.42
2023-12-08T09:43:41.104Z,23.70
2023-12-08T09:46:15.028Z,12.32
2023-12-08T09:48:49.007Z,10.48
2023-12-08T09:51:22.435Z,11.85
2023-12-08T09:53:57.039Z,11.88
2023-12-08T09:56:30.636Z,9.95
2023-12-08T09:59:04.941Z,13.15
2023-12-08T10:01:37.700Z,14.10
2023-12-08T10:04:11.555Z,12.27
2023-12-08T10:06:45.010Z,26.27
2023-12-08T10:09:19.243Z,12.07
2023-12-08T10:11:52.079Z,13.13
2023-12-08T10:14:26.440Z,11.88
2023-12-08T10:16:59.075Z,11.52
2023-12-08T10:19:32.208Z,13.20
2023-12-08T10:22:06.236Z,7.82
2023-12-08T10:24:40.412Z,12.00
2023-12-08T10:27:13.411Z,15.43
2023-12-08T10:29:46.259Z,12.52
2023-12-08T10:32:20.082Z,29.52
2023-12-08T10:34:52.813Z,28.23
2023-12-08T10:37:26.441Z,11.32
2023-12-08T10:40:01.577Z,13.07
2023-12-08T10:45:11.599Z,11.55
2023-12-08T10:47:45.711Z,27.85
2023-12-08T10:52:53.785Z,12.75
2023-12-08T10:55:27.900Z,13.18
2023-12-08T10:58:03.031Z,13.73
2023-12-08T11:00:36.826Z,13.75
2023-12-08T11:03:10.908Z,30.20
2023-12-08T11:05:46.637Z,13.53
2023-12-08T11:08:20.119Z,14.65
2023-12-08T11:10:55.180Z,30.17
2023-12-08T11:16:12.950Z,11.85
2023-12-08T11:18:46.713Z,30.98
2023-12-08T11:21:19.978Z,14.57
2023-12-08T11:23:53.467Z,13.63
2023-12-08T11:26:30.920Z,31.10
2023-12-08T11:29:06.629Z,10.18
2023-12-08T11:31:44.201Z,13.85
2023-12-08T11:34:19.161Z,27.50
2023-12-08T11:36:52.720Z,30.70
2023-12-08T11:39:43.597Z,32.97
2023-12-08T11:42:19.374Z,32.28
2023-12-08T11:44:52.675Z,13.90
2023-12-08T11:47:27.039Z,12.55
2023-12-08T11:50:00.166Z,27.73
2023-12-08T11:52:34.647Z,27.27
2023-12-08T11:55:17.363Z,11.80
2023-12-08T11:58:07.550Z,7.55
2023-12-08T12:00:41.202Z,29.17
2023-12-08T12:03:14.154Z,24.20
2023-12-08T12:05:47.393Z,29.02
2023-12-08T12:08:26.852Z,29.67
2023-12-08T12:11:00.797Z,28.45
2023-12-08T12:13:38.643Z,28.05
2023-12-08T12:16:11.867Z,11.88
2023-12-08T12:18:44.997Z,24.27
2023-12-08T12:21:17.745Z,12.40
2023-12-08T12:23:50.460Z,23.70
2023-12-08T12:26:23.154Z,27.15
2023-12-08T12:28:57.573Z,28.38
2023-12-08T12:31:31.723Z,27.93
2023-12-08T12:34:04.684Z,12.67
2023-12-08T12:36:37.793Z,29.65
2023-12-08T12:39:12.189Z,30.95
2023-12-08T12:41:45.514Z,33.25
2023-12-08T12:44:19.611Z,33.60
2023-12-08T12:46:52.330Z,16.27
2023-12-08T12:49:25.475Z,34.85
2023-12-08T12:51:58.376Z,32.83
2023-12-08T12:54:35.954Z,33.85
2023-12-08T12:57:08.644Z,41.67
2023-12-08T12:59:52.996Z,38.53
2023-12-08T13:02:27.641Z,41.15
2023-12-08T13:05:05.324Z,28.83
2023-12-08T13:07:38.470Z,39.80
2023-12-08T13:10:11.259Z,43.25
2023-12-08T13:12:43.949Z,10.90
2023-12-08T13:15:18.651Z,37.97
2023-12-08T13:17:51.623Z,41.55
2023-12-08T13:20:25.249Z,43.08
2023-12-08T13:22:58.391Z,38.35
2023-12-08T13:25:31.229Z,45.20
2023-12-08T13:28:03.973Z,38.40
2023-12-08T13:30:38.105Z,41.22
2023-12-08T13:33:11.477Z,46.75
2023-12-08T13:35:44.595Z,46.15
2023-12-08T13:38:17.425Z,38.83
2023-12-08T13:40:50.910Z,45.70
2023-12-08T13:43:23.663Z,47.55
2023-12-08T13:45:57.811Z,45.80
2023-12-08T13:48:30.600Z,44.33
2023-12-08T13:53:40.031Z,48.15
2023-12-08T13:56:13.249Z,49.55
2023-12-08T13:58:46.472Z,52.53
2023-12-08T14:01:22.701Z,47.60
2023-12-08T14:03:55.541Z,47.95
2023-12-08T14:06:28.346Z,44.80
2023-12-08T14:09:02.742Z,48.05
2023-12-08T14:11:35.471Z,39.47
2023-12-08T14:14:08.688Z,43.97
2023-12-08T14:19:51.522Z,46.47
2023-12-08T14:25:02.253Z,49.28
2023-12-08T14:27:37.502Z,49.25
2023-12-08T14:30:11.631Z,48.05
2023-12-08T14:32:45.708Z,49.40
2023-12-08T14:35:26.726Z,48.27
2023-12-08T14:38:03.925Z,45.67
2023-12-08T14:40:37.880Z,45.13
2023-12-08T14:43:10.621Z,45.35
2023-12-08T14:45:43.283Z,39.15
2023-12-08T14:48:16.638Z,41.17
2023-12-08T14:50:51.836Z,42.78
2023-12-08T15:25:15.185Z,46.97
2023-12-08T15:27:49.446Z,45.88
2023-12-08T15:30:22.220Z,46.47
2023-12-08T15:32:55.027Z,45.08
2023-12-08T15:35:28.116Z,49.38
2023-12-08T15:38:01.389Z,45.47
2023-12-08T15:40:36.964Z,44.63
2023-12-08T15:43:09.729Z,48.25
2023-12-08T15:45:42.804Z,49.15
2023-12-08T15:48:15.726Z,48.63
2023-12-08T15:50:48.524Z,47.15
2023-12-08T15:53:21.193Z,47.05
2023-12-08T15:55:55.713Z,49.20
2023-12-08T15:58:29.083Z,53.05
2023-12-08T16:01:01.789Z,52.97
2023-12-08T16:03:34.648Z,44.45
2023-12-08T16:06:13.575Z,51.63
2023-12-08T16:08:46.994Z,52.85
2023-12-08T16:11:27.645Z,55.10
2023-12-08T16:14:03.617Z,51.95
2023-12-08T16:16:37.989Z,54.13
2023-12-08T16:19:13.032Z,51.50
2023-12-08T16:21:45.758Z,52.55
2023-12-08T16:24:18.714Z,54.28
2023-12-08T16:26:54.004Z,59.65
2023-12-08T16:29:26.816Z,56.58
2023-12-08T16:31:59.591Z,56.38
2023-12-08T16:34:32.854Z,61.67
2023-12-08T16:37:05.818Z,54.83
2023-12-08T16:39:38.701Z,58.17
2023-12-08T16:42:13.912Z,52.35
2023-12-08T16:44:48.084Z,58.17
2023-12-08T16:47:21.516Z,60.33
2023-12-08T16:49:54.833Z,57.55
2023-12-08T16:52:27.711Z,64.05
2023-12-08T16:55:00.695Z,63.72
2023-12-08T16:57:34.830Z,57.92
2023-12-08T17:00:08.456Z,61.40
2023-12-08T17:02:41.425Z,57.50
2023-12-08T17:05:14.636Z,63.35
2023-12-08T17:07:48.292Z,61.78
2023-12-08T17:10:21.204Z,59.78
2023-12-08T17:12:55.281Z,59.72
2023-12-08T17:15:28.115Z,57.63
2023-12-08T17:18:01.024Z,52.95
2023-12-08T17:20:33.852Z,54.50
2023-12-08T17:23:06.550Z,48.65
2023-12-08T17:25:39.202Z,49.72
2023-12-08T17:28:13.230Z,55.25
2023-12-08T17:30:50.437Z,45.13
2023-12-08T17:33:23.292Z,42.35
2023-12-08T17:35:57.230Z,43.30
2023-12-08T17:38:30.214Z,43.83
2023-12-08T17:41:02.981Z,45.50
2023-12-08T17:43:37.517Z,42.38
2023-12-08T17:46:12.690Z,41.78
2023-12-08T17:48:46.670Z,44.33
2023-12-08T17:51:20.434Z,41.67
2023-12-08T17:53:53.192Z,41.78
2023-12-08T17:56:26.019Z,40.53
2023-12-08T17:59:00.327Z,40.50
2023-12-08T18:01:33.050Z,41.75
2023-12-08T18:04:05.849Z,43.22
2023-12-08T18:06:38.952Z,41.88
2023-12-08T18:09:11.893Z,39.40
2023-12-08T18:11:45.009Z,42.33
2023-12-08T18:14:19.519Z,39.50
2023-12-08T18:16:52.372Z,40.80
2023-12-08T18:19:25.722Z,40.20
2023-12-08T18:21:58.985Z,41.47
2023-12-08T18:24:32.236Z,39.28
2023-12-08T18:27:05.260Z,43.30
2023-12-08T18:29:40.285Z,42.75
2023-12-08T18:34:47.169Z,46.55
2023-12-08T18:37:20.522Z,44.58
2023-12-08T18:39:53.748Z,41.20
2023-12-08T18:42:26.816Z,42.50
2023-12-08T18:45:01.058Z,42.67
2023-12-08T18:47:33.860Z,40.57
2023-12-08T18:50:07.874Z,38.83
2023-12-08T18:52:41.222Z,41.40
2023-12-08T18:55:14.354Z,41.90
2023-12-08T18:57:47.158Z,40.92
2023-12-08T19:00:21.862Z,44.22
2023-12-08T19:02:54.534Z,41.22
2023-12-08T19:05:27.808Z,40.75
2023-12-08T19:08:01.395Z,40.53
2023-12-08T19:10:34.136Z,40.92
2023-12-08T19:13:07.289Z,33.42
2023-12-08T19:15:41.505Z,36.92
2023-12-08T19:18:14.662Z,37.72
2023-12-08T19:20:49.410Z,35.95
2023-12-08T19:23:24.668Z,34.95
2023-12-08T19:26:00.999Z,35.53
2023-12-08T19:28:33.803Z,35.05
2023-12-08T19:31:08.513Z,35.33
2023-12-08T19:33:41.510Z,34.40
2023-12-08T19:36:15.967Z,34.53
2023-12-08T19:41:22.364Z,32.45
2023-12-08T19:43:55.756Z,31.08
2023-12-08T19:46:30.817Z,33.25
2023-12-08T19:51:36.415Z,31.27
2023-12-08T19:54:09.882Z,31.40
2023-12-08T19:56:44.341Z,32.25
2023-12-08T19:59:17.047Z,29.83
2023-12-08T20:01:53.411Z,30.35
2023-12-08T20:04:26.144Z,30.77
2023-12-08T20:06:59.477Z,30.15
2023-12-08T20:09:32.820Z,30.27
2023-12-08T20:12:05.920Z,30.50
2023-12-08T20:14:38.954Z,28.80
2023-12-08T20:17:22.091Z,27.42
2023-12-08T20:19:56.093Z,27.42
2023-12-08T20:22:28.838Z,27.67
2023-12-08T20:25:01.546Z,28.60
2023-12-08T20:27:34.461Z,26.90
2023-12-08T20:30:08.229Z,28.38
2023-12-08T20:32:42.446Z,27.58
2023-12-08T20:35:15.665Z,30.15
2023-12-08T20:37:48.525Z,26.90
2023-12-08T20:40:21.402Z,27.33
2023-12-08T20:42:54.759Z,25.23
2023-12-08T20:45:27.584Z,23.42
2023-12-08T20:48:01.821Z,27.42
2023-12-08T20:50:35.172Z,25.00
2023-12-08T20:53:07.928Z,25.15
2023-12-08T20:55:40.683Z,24.42
2023-12-08T20:58:13.562Z,25.73
2023-12-08T21:00:46.343Z,24.30
2023-12-08T21:03:21.973Z,22.65
2023-12-08T21:05:54.985Z,21.83
2023-12-08T21:08:27.902Z,21.02
2023-12-08T21:11:01.884Z,23.83
2023-12-08T21:13:34.624Z,19.75
2023-12-08T21:16:07.676Z,19.85
2023-12-08T21:18:42.114Z,18.38
2023-12-08T21:21:15.088Z,18.15
2023-12-08T21:23:48.850Z,15.95
2023-12-08T21:26:21.559Z,18.00
2023-12-08T21:28:55.382Z,15.77
2023-12-08T21:31:28.468Z,16.10
2023-12-08T21:34:02.773Z,15.65
2023-12-08T21:36:35.706Z,15.55
2023-12-08T21:39:08.828Z,13.95
2023-12-08T21:41:41.670Z,14.88
2023-12-08T21:44:14.450Z,13.63
2023-12-08T21:46:47.232Z,14.13
2023-12-08T21:49:21.990Z,13.07
2023-12-08T21:51:55.409Z,12.90
2023-12-08T21:54:28.388Z,11.85
2023-12-08T21:57:01.433Z,12.57
2023-12-08T21:59:35.026Z,11.70
2023-12-08T22:02:07.873Z,11.95
2023-12-08T22:04:42.016Z,12.18
2023-12-08T22:07:15.241Z,12.50
2023-12-08T22:09:48.105Z,10.52
2023-12-08T22:12:20.845Z,10.45
2023-12-08T22:14:53.644Z,10.52
2023-12-08T22:17:26.705Z,10.55
2023-12-08T22:20:01.298Z,10.90
2023-12-08T22:22:34.545Z,11.15
2023-12-08T22:25:08.260Z,9.55
2023-12-08T22:27:41.078Z,9.07
2023-12-08T22:30:14.021Z,9.05
2023-12-08T22:32:47.053Z,8.73
2023-12-08T22:35:21.361Z,9.20
2023-12-08T22:37:54.640Z,8.88
2023-12-08T22:40:28.425Z,9.95
2023-12-08T22:43:01.691Z,9.23
2023-12-08T22:45:34.528Z,8.98
2023-12-08T22:48:07.582Z,9.10
2023-12-08T22:50:49.058Z,8.45
2023-12-08T22:53:24.257Z,8.32
2023-12-08T22:55:56.974Z,8.27
2023-12-08T22:58:29.605Z,8.65
2023-12-08T23:01:02.354Z,9.02
2023-12-08T23:03:35.622Z,9.07
2023-12-08T23:06:09.888Z,8.15
2023-12-08T23:08:43.442Z,8.40
2023-12-08T23:11:16.412Z,8.73
2023-12-08T23:13:49.922Z,7.95
2023-12-08T23:16:22.571Z,7.60
2023-12-08T23:18:56.062Z,8.00
2023-12-08T23:21:30.620Z,7.63
2023-12-08T23:24:03.667Z,7.85
2023-12-08T23:26:37.280Z,9.07
2023-12-08T23:29:10.168Z,6.53
2023-12-08T23:31:42.951Z,6.90
2023-12-08T23:34:16.787Z,7.88
2023-12-08T23:36:52.079Z,6.40
2023-12-08T23:39:26.476Z,6.53
2023-12-08T23:41:59.659Z,7.43
2023-12-08T23:44:33.357Z,6.22
2023-12-08T23:47:06.392Z,7.97
2023-12-08T23:49:39.231Z,7.07
2023-12-08T23:52:13.484Z,6.90
2023-12-08T23:54:46.225Z,6.63
2023-12-08T23:57:19.464Z,7.20
2023-12-08T23:59:52.421Z,6.32
